Time;durP1;ratioP1;P1;durP2;ratioP2;P2;SDS_P1;SDS_P2;PMS_P1;PMS_P2;Temp;Humidity;BMP_temperature;BMP_pressure;BME280_temperature;BME280_humidity;BME280_pressure;Samples;Min_cycle;Max_cycle;Signal;HPM_P1;HPM_P2
2022/12/07 00:01:22;;;;;;;6.27;2.07;;;;;;;;;;5007197;28;20447;-81
2022/12/07 00:03:48;;;;;;;4.13;2.30;;;;;;;;;;5007976;28;20189;-82
2022/12/07 00:06:17;;;;;;;4.10;1.67;;;;;;;;;;5011572;28;20434;-83
2022/12/07 00:08:43;;;;;;;5.50;2.23;;;;;;;;;;5010974;28;20491;-80
2022/12/07 00:11:13;;;;;;;7.43;1.97;;;;;;;;;;5012397;28;20469;-83
2022/12/07 00:13:39;;;;;;;5.27;1.80;;;;;;;;;;4999204;28;20280;-83
2022/12/07 00:16:04;;;;;;;3.63;1.50;;;;;;;;;;5011898;28;21185;-79
2022/12/07 00:18:29;;;;;;;5.50;1.73;;;;;;;;;;5012853;28;20204;-80
2022/12/07 00:21:05;;;;;;;5.20;1.43;;;;;;;;;;5005771;28;20213;-80
2022/12/07 00:23:31;;;;;;;5.10;1.70;;;;;;;;;;5002302;28;20172;-79
2022/12/07 00:26:02;;;;;;;7.53;2.30;;;;;;;;;;5020034;28;20503;-84
2022/12/07 00:28:28;;;;;;;5.67;1.43;;;;;;;;;;5000856;28;20212;-81
2022/12/07 00:30:59;;;;;;;3.90;1.40;;;;;;;;;;5014406;28;20441;-79
2022/12/07 00:33:24;;;;;;;3.00;1.10;;;;;;;;;;5003888;28;20172;-80
2022/12/07 00:35:54;;;;;;;7.50;1.57;;;;;;;;;;5019315;28;20416;-80
2022/12/07 00:38:20;;;;;;;7.07;1.30;;;;;;;;;;5016999;28;20201;-82
2022/12/07 00:40:53;;;;;;;4.43;1.20;;;;;;;;;;5015130;28;20526;-80
2022/12/07 00:43:18;;;;;;;8.33;1.63;;;;;;;;;;5018234;28;20276;-78
2022/12/07 00:45:43;;;;;;;10.47;1.83;;;;;;;;;;4999414;28;20462;-82
2022/12/07 00:48:09;;;;;;;11.13;1.80;;;;;;;;;;5015969;28;20197;-85
2022/12/07 00:50:34;;;;;;;3.33;1.00;;;;;;;;;;5004304;28;20227;-84
2022/12/07 00:52:59;;;;;;;2.63;0.87;;;;;;;;;;5012846;28;20189;-82
2022/12/07 00:55:25;;;;;;;7.50;1.47;;;;;;;;;;5007934;28;20212;-83
2022/12/07 00:57:50;;;;;;;6.93;1.30;;;;;;;;;;5009921;28;20613;-82
2022/12/07 01:00:15;;;;;;;7.30;1.43;;;;;;;;;;5008546;28;20296;-81
2022/12/07 01:02:41;;;;;;;7.20;1.20;;;;;;;;;;5010611;28;20185;-85
2022/12/07 01:05:06;;;;;;;5.17;1.20;;;;;;;;;;5011963;28;20192;-82
2022/12/07 01:07:32;;;;;;;13.93;3.00;;;;;;;;;;4999219;28;20227;-80
2022/12/07 01:09:57;;;;;;;6.37;1.00;;;;;;;;;;4995486;28;20689;-83
2022/12/07 01:12:22;;;;;;;11.73;1.20;;;;;;;;;;5009698;28;20188;-82
2022/12/07 01:14:48;;;;;;;3.57;1.00;;;;;;;;;;5010084;28;20192;-85
2022/12/07 01:17:13;;;;;;;9.17;0.97;;;;;;;;;;4991615;28;20553;-81
2022/12/07 01:19:38;;;;;;;1.40;1.00;;;;;;;;;;5011787;28;20200;-80
2022/12/07 01:22:04;;;;;;;2.80;0.80;;;;;;;;;;5008694;28;20208;-81
2022/12/07 01:24:29;;;;;;;4.77;1.00;;;;;;;;;;5010567;28;20208;-82
2022/12/07 01:26:54;;;;;;;2.17;1.00;;;;;;;;;;5011891;28;20644;-83
2022/12/07 01:29:20;;;;;;;13.37;1.30;;;;;;;;;;4993590;28;20224;-84
2022/12/07 01:31:48;;;;;;;4.80;0.90;;;;;;;;;;5009870;28;20229;-85
2022/12/07 01:34:13;;;;;;;4.80;1.13;;;;;;;;;;5010687;28;20212;-81
2022/12/07 01:36:42;;;;;;;4.83;1.10;;;;;;;;;;5010891;28;20931;-77
2022/12/07 01:39:07;;;;;;;7.27;1.30;;;;;;;;;;5006037;28;20200;-79
2022/12/07 01:41:34;;;;;;;5.37;1.73;;;;;;;;;;4990359;28;20652;-81
2022/12/07 01:44:15;;;;;;;4.07;1.10;;;;;;;;;;4995298;28;20188;-79
2022/12/07 01:46:41;;;;;;;5.53;1.20;;;;;;;;;;5005269;28;20428;-82
2022/12/07 01:49:12;;;;;;;4.93;1.10;;;;;;;;;;4999698;28;20553;-80
2022/12/07 01:51:39;;;;;;;6.93;1.10;;;;;;;;;;5010545;28;20474;-80
2022/12/07 01:54:05;;;;;;;9.50;1.20;;;;;;;;;;5007093;28;20970;-82
2022/12/07 01:56:31;;;;;;;6.40;1.33;;;;;;;;;;4995294;28;20737;-80
2022/12/07 01:58:58;;;;;;;3.63;1.27;;;;;;;;;;5005655;28;20196;-80
2022/12/07 02:01:24;;;;;;;4.97;1.20;;;;;;;;;;5007597;28;20432;-81
2022/12/07 02:03:50;;;;;;;3.13;1.00;;;;;;;;;;4991734;28;20427;-82
2022/12/07 02:06:17;;;;;;;5.00;1.47;;;;;;;;;;5010577;28;20435;-78
2022/12/07 02:08:46;;;;;;;9.20;1.23;;;;;;;;;;5008470;28;20232;-81
2022/12/07 02:11:11;;;;;;;4.97;0.90;;;;;;;;;;5010142;28;20449;-82
2022/12/07 02:13:39;;;;;;;7.90;1.10;;;;;;;;;;5009870;28;20809;-83
2022/12/07 02:16:23;;;;;;;4.67;1.30;;;;;;;;;;5009792;28;20193;-83
2022/12/07 02:19:07;;;;;;;6.17;1.27;;;;;;;;;;4997316;28;20876;-80
2022/12/07 02:21:33;;;;;;;3.07;0.80;;;;;;;;;;5012722;28;20455;-81
2022/12/07 02:24:09;;;;;;;4.60;1.17;;;;;;;;;;5014167;28;20545;-82
2022/12/07 02:26:50;;;;;;;5.43;1.70;;;;;;;;;;5012745;28;20663;-79
2022/12/07 02:29:22;;;;;;;4.07;1.17;;;;;;;;;;5014606;28;20511;-82
2022/12/07 02:32:06;;;;;;;5.40;1.23;;;;;;;;;;5000420;28;20432;-80
2022/12/07 02:34:50;;;;;;;3.43;1.30;;;;;;;;;;5014929;28;20436;-80
2022/12/07 02:37:19;;;;;;;6.63;1.30;;;;;;;;;;5016363;28;20403;-79
2022/12/07 02:39:55;;;;;;;4.10;1.23;;;;;;;;;;5016067;28;21544;-78
2022/12/07 02:42:26;;;;;;;6.80;1.40;;;;;;;;;;5014469;28;20474;-79
2022/12/07 02:44:52;;;;;;;7.53;1.40;;;;;;;;;;5012378;28;20439;-80
2022/12/07 02:47:19;;;;;;;3.43;0.80;;;;;;;;;;5012799;28;21021;-80
2022/12/07 02:49:45;;;;;;;6.73;0.87;;;;;;;;;;5012973;28;20651;-77
2022/12/07 02:52:10;;;;;;;2.23;0.80;;;;;;;;;;5010986;28;20434;-82
2022/12/07 02:54:35;;;;;;;3.83;1.00;;;;;;;;;;5005955;28;20667;-84
2022/12/07 02:57:04;;;;;;;3.23;1.07;;;;;;;;;;4998237;28;20189;-84
2022/12/07 02:59:39;;;;;;;5.73;1.20;;;;;;;;;;5008250;28;20204;-79
2022/12/07 03:02:10;;;;;;;6.30;1.07;;;;;;;;;;4989839;28;20506;-81
2022/12/07 03:04:36;;;;;;;5.23;1.10;;;;;;;;;;5008043;28;20450;-80
2022/12/07 03:07:15;;;;;;;4.50;1.50;;;;;;;;;;4996888;28;20442;-83
2022/12/07 03:09:46;;;;;;;7.67;1.17;;;;;;;;;;5012272;28;20185;-82
2022/12/07 03:12:18;;;;;;;4.13;1.10;;;;;;;;;;5003308;28;20431;-81
2022/12/07 03:14:52;;;;;;;4.40;1.00;;;;;;;;;;5012802;28;21007;-82
2022/12/07 03:17:24;;;;;;;5.30;1.20;;;;;;;;;;5012584;28;20427;-78
2022/12/07 03:19:50;;;;;;;4.80;1.10;;;;;;;;;;5000645;28;20837;-82
2022/12/07 03:22:16;;;;;;;10.30;1.30;;;;;;;;;;5018681;28;20443;-83
2022/12/07 03:24:44;;;;;;;4.10;1.00;;;;;;;;;;5011642;28;20562;-82
2022/12/07 03:27:18;;;;;;;6.50;1.10;;;;;;;;;;5008561;28;20440;-83
2022/12/07 03:29:49;;;;;;;4.87;0.90;;;;;;;;;;5011497;28;20482;-83
2022/12/07 03:32:20;;;;;;;6.43;1.27;;;;;;;;;;5009564;28;20530;-84
2022/12/07 03:34:49;;;;;;;7.10;1.13;;;;;;;;;;4997204;28;20926;-81
2022/12/07 03:37:21;;;;;;;4.90;1.40;;;;;;;;;;5011017;28;20443;-83
2022/12/07 03:39:47;;;;;;;6.70;1.17;;;;;;;;;;5011686;28;20474;-81
2022/12/07 03:42:12;;;;;;;5.43;1.30;;;;;;;;;;5009808;28;20440;-80
2022/12/07 03:44:38;;;;;;;3.87;1.47;;;;;;;;;;5012745;28;20209;-79
2022/12/07 03:47:16;;;;;;;7.80;1.40;;;;;;;;;;5009397;28;20184;-80
2022/12/07 03:49:43;;;;;;;7.40;1.50;;;;;;;;;;5004558;28;20211;-84
2022/12/07 03:52:32;;;;;;;13.53;1.40;;;;;;;;;;5013598;28;20439;-81
2022/12/07 03:55:04;;;;;;;10.37;1.90;;;;;;;;;;5011188;28;20463;-80
2022/12/07 03:57:30;;;;;;;9.53;1.97;;;;;;;;;;5009438;28;20482;-82
2022/12/07 03:59:56;;;;;;;7.27;1.60;;;;;;;;;;4995678;28;20896;-79
2022/12/07 04:02:22;;;;;;;5.37;1.17;;;;;;;;;;4994514;28;20468;-79
2022/12/07 04:04:47;;;;;;;2.20;1.10;;;;;;;;;;5013915;28;20439;-81
2022/12/07 04:07:13;;;;;;;4.57;0.90;;;;;;;;;;5009937;28;20193;-78
2022/12/07 04:09:38;;;;;;;5.63;1.20;;;;;;;;;;5013733;28;20185;-81
2022/12/07 04:12:04;;;;;;;7.20;1.73;;;;;;;;;;5010791;28;20180;-83
2022/12/07 04:14:29;;;;;;;4.37;1.10;;;;;;;;;;5001736;28;20223;-81
2022/12/07 04:16:58;;;;;;;3.67;0.97;;;;;;;;;;5009692;28;20181;-79
2022/12/07 04:19:25;;;;;;;5.63;1.30;;;;;;;;;;5010377;28;20695;-81
2022/12/07 04:21:50;;;;;;;4.80;0.87;;;;;;;;;;4998035;28;20436;-80
2022/12/07 04:24:16;;;;;;;4.83;1.00;;;;;;;;;;5018605;28;20498;-79
2022/12/07 04:26:42;;;;;;;4.97;1.23;;;;;;;;;;5019815;28;20597;-80
2022/12/07 04:29:07;;;;;;;3.00;0.80;;;;;;;;;;5017102;28;20243;-81
2022/12/07 04:31:33;;;;;;;3.13;0.90;;;;;;;;;;5017344;28;20435;-79
2022/12/07 04:33:58;;;;;;;3.10;0.80;;;;;;;;;;5018814;28;20236;-82
2022/12/07 04:36:23;;;;;;;6.37;1.10;;;;;;;;;;5018914;28;20651;-79
2022/12/07 04:38:48;;;;;;;3.77;0.90;;;;;;;;;;5018614;28;20515;-81
2022/12/07 04:41:14;;;;;;;2.20;1.10;;;;;;;;;;4999603;28;20208;-80
2022/12/07 04:43:39;;;;;;;4.07;0.90;;;;;;;;;;5015309;28;20189;-82
2022/12/07 04:46:05;;;;;;;2.53;0.90;;;;;;;;;;5017469;28;20212;-79
2022/12/07 04:48:30;;;;;;;4.17;0.80;;;;;;;;;;5001908;28;20193;-80
2022/12/07 04:50:56;;;;;;;7.20;0.70;;;;;;;;;;5001145;28;20531;-80
2022/12/07 04:53:21;;;;;;;4.00;0.93;;;;;;;;;;5011478;28;20711;-82
2022/12/07 04:55:47;;;;;;;5.83;0.80;;;;;;;;;;5009612;28;20184;-83
2022/12/07 04:58:12;;;;;;;6.60;0.90;;;;;;;;;;5005969;28;20204;-79
2022/12/07 05:00:38;;;;;;;1.97;0.60;;;;;;;;;;4996349;28;20332;-80
2022/12/07 05:03:03;;;;;;;2.13;0.70;;;;;;;;;;5009088;28;20193;-82
2022/12/07 05:05:28;;;;;;;6.27;0.83;;;;;;;;;;5012902;28;20251;-79
2022/12/07 05:07:54;;;;;;;4.60;0.80;;;;;;;;;;5010118;28;20267;-82
2022/12/07 05:10:19;;;;;;;3.23;0.83;;;;;;;;;;5012042;28;20184;-81
2022/12/07 05:12:45;;;;;;;6.40;1.30;;;;;;;;;;5013307;28;20956;-79
2022/12/07 05:15:11;;;;;;;4.87;1.10;;;;;;;;;;4991890;28;20200;-79
2022/12/07 05:17:39;;;;;;;6.20;1.10;;;;;;;;;;5009725;28;20470;-80
2022/12/07 05:20:05;;;;;;;4.83;1.20;;;;;;;;;;4999727;28;20238;-78
2022/12/07 05:22:30;;;;;;;3.03;0.90;;;;;;;;;;5024936;28;20851;-85
2022/12/07 05:24:55;;;;;;;3.80;1.10;;;;;;;;;;5023771;28;20200;-85
2022/12/07 05:27:21;;;;;;;3.00;0.90;;;;;;;;;;5004436;28;20631;-81
2022/12/07 05:29:46;;;;;;;4.50;1.00;;;;;;;;;;4994468;28;20572;-85
2022/12/07 05:32:12;;;;;;;3.53;1.00;;;;;;;;;;4991084;28;20189;-83
2022/12/07 05:34:37;;;;;;;4.30;1.00;;;;;;;;;;5004305;28;20268;-83
2022/12/07 05:37:02;;;;;;;1.50;0.90;;;;;;;;;;5021353;23;20305;-73
2022/12/07 05:39:28;;;;;;;5.80;1.30;;;;;;;;;;5001320;28;20862;-73
2022/12/07 05:42:11;;;;;;;3.57;0.83;;;;;;;;;;5018880;28;20180;-73
2022/12/07 05:44:37;;;;;;;3.07;0.80;;;;;;;;;;5015465;28;20208;-73
2022/12/07 05:47:02;;;;;;;2.93;1.00;;;;;;;;;;5018706;28;20906;-73
2022/12/07 05:49:45;;;;;;;;;;;;;;;;;;;;;
2022/12/07 05:52:11;;;;;;;3.30;0.90;;;;;;;;;;5020972;28;20184;-73
2022/12/07 05:54:36;;;;;;;2.50;0.80;;;;;;;;;;5017779;28;20445;-75
2022/12/07 05:57:01;;;;;;;3.10;1.10;;;;;;;;;;5007667;28;20208;-73
2022/12/07 05:59:27;;;;;;;6.33;0.93;;;;;;;;;;5025022;28;20563;-73
2022/12/07 06:01:57;;;;;;;8.50;1.40;;;;;;;;;;5022150;28;20618;-75
2022/12/07 06:04:22;;;;;;;5.10;2.00;;;;;;;;;;5022680;28;20578;-73
2022/12/07 06:06:47;;;;;;;2.37;1.37;;;;;;;;;;5007119;28;20450;-72
2022/12/07 06:09:13;;;;;;;5.70;1.30;;;;;;;;;;5020489;28;20176;-75
2022/12/07 06:14:23;;;;;;;12.93;1.50;;;;;;;;;;5020119;28;20722;-74
2022/12/07 06:16:48;;;;;;;7.33;1.57;;;;;;;;;;5017298;28;20515;-74
2022/12/07 06:19:14;;;;;;;8.03;1.40;;;;;;;;;;5022597;28;20173;-74
2022/12/07 06:21:39;;;;;;;7.80;1.30;;;;;;;;;;5026583;28;20554;-74
2022/12/07 06:24:04;;;;;;;6.33;1.40;;;;;;;;;;5025711;28;20188;-75
2022/12/07 06:26:30;;;;;;;12.43;2.10;;;;;;;;;;5021741;28;20173;-74
2022/12/07 06:28:55;;;;;;;5.97;1.63;;;;;;;;;;5018345;28;20211;-74
2022/12/07 06:31:20;;;;;;;8.73;1.73;;;;;;;;;;5009703;28;20172;-74
2022/12/07 06:33:46;;;;;;;4.00;1.80;;;;;;;;;;5013628;28;20207;-74
2022/12/07 06:36:11;;;;;;;7.07;1.13;;;;;;;;;;5011893;28;20177;-74
2022/12/07 06:38:37;;;;;;;9.00;1.87;;;;;;;;;;5027319;28;20227;-75
2022/12/07 06:41:02;;;;;;;10.30;1.80;;;;;;;;;;5025811;28;20201;-74
2022/12/07 06:43:27;;;;;;;6.03;1.30;;;;;;;;;;5026658;28;20307;-74
2022/12/07 06:45:53;;;;;;;3.87;1.10;;;;;;;;;;5020051;28;20180;-75
2022/12/07 06:48:18;;;;;;;3.03;0.90;;;;;;;;;;5025221;28;20718;-75
2022/12/07 06:50:46;;;;;;;4.17;1.37;;;;;;;;;;5025325;28;20172;-75
2022/12/07 06:53:12;;;;;;;3.90;0.97;;;;;;;;;;5004080;28;20193;-75
2022/12/07 06:55:37;;;;;;;4.20;0.70;;;;;;;;;;5002470;28;20938;-75
2022/12/07 06:58:02;;;;;;;1.97;1.17;;;;;;;;;;5012241;28;20261;-75
2022/12/07 07:00:28;;;;;;;4.20;1.00;;;;;;;;;;5019466;28;20303;-75
2022/12/07 07:02:53;;;;;;;4.83;0.90;;;;;;;;;;5022505;28;20180;-73
2022/12/07 07:05:21;;;;;;;5.50;1.10;;;;;;;;;;5020110;28;20650;-75
2022/12/07 07:07:47;;;;;;;7.10;2.13;;;;;;;;;;5024517;28;20219;-74
2022/12/07 07:10:13;;;;;;;12.70;5.67;;;;;;;;;;5007152;28;20488;-75
2022/12/07 07:12:38;;;;;;;9.03;5.13;;;;;;;;;;5020860;28;20435;-75
2022/12/07 07:15:03;;;;;;;7.67;2.43;;;;;;;;;;5006041;28;20257;-75
2022/12/07 07:17:29;;;;;;;7.50;1.97;;;;;;;;;;5021646;28;20744;-75
2022/12/07 07:19:54;;;;;;;10.03;2.60;;;;;;;;;;5005471;28;20208;-75
2022/12/07 07:22:20;;;;;;;10.90;3.20;;;;;;;;;;5028963;28;20222;-75
2022/12/07 07:24:45;;;;;;;5.90;2.23;;;;;;;;;;5029824;28;20169;-75
2022/12/07 07:27:10;;;;;;;7.37;2.00;;;;;;;;;;5027307;28;20660;-75
2022/12/07 07:29:36;;;;;;;4.17;1.27;;;;;;;;;;5019909;28;20184;-75
2022/12/07 07:32:01;;;;;;;5.77;1.73;;;;;;;;;;5012040;28;20189;-75
2022/12/07 07:34:27;;;;;;;4.57;1.20;;;;;;;;;;5025264;28;20832;-74
2022/12/07 07:36:52;;;;;;;4.90;1.20;;;;;;;;;;5025241;28;20204;-75
2022/12/07 07:39:17;;;;;;;6.23;1.73;;;;;;;;;;5023055;28;20230;-75
2022/12/07 07:41:43;;;;;;;3.60;1.10;;;;;;;;;;5015135;28;20216;-75
2022/12/07 07:44:09;;;;;;;3.83;1.10;;;;;;;;;;5006895;28;20596;-75
2022/12/07 07:46:34;;;;;;;5.10;1.27;;;;;;;;;;5022810;28;20181;-75
2022/12/07 07:49:02;;;;;;;3.30;1.10;;;;;;;;;;5015349;28;20434;-75
2022/12/07 07:51:27;;;;;;;2.73;0.80;;;;;;;;;;5015054;28;20168;-75
2022/12/07 07:53:53;;;;;;;6.90;1.47;;;;;;;;;;5027410;28;20717;-75
2022/12/07 07:56:18;;;;;;;4.33;0.97;;;;;;;;;;5008102;28;20644;-74
2022/12/07 07:58:43;;;;;;;8.37;1.50;;;;;;;;;;5025820;28;20176;-74
2022/12/07 08:01:09;;;;;;;9.07;1.43;;;;;;;;;;5025720;28;20220;-75
2022/12/07 08:03:36;;;;;;;10.43;1.93;;;;;;;;;;5025169;28;20168;-75
2022/12/07 08:06:02;;;;;;;2.60;1.20;;;;;;;;;;5003010;28;20238;-75
2022/12/07 08:08:27;;;;;;;6.93;1.83;;;;;;;;;;5019023;28;20450;-74
2022/12/07 08:10:53;;;;;;;4.57;1.30;;;;;;;;;;5008520;28;20518;-74
2022/12/07 08:13:18;;;;;;;7.13;1.70;;;;;;;;;;5023482;28;20173;-74
2022/12/07 08:15:45;;;;;;;7.40;1.60;;;;;;;;;;5027545;28;20211;-75
2022/12/07 08:18:10;;;;;;;6.67;1.37;;;;;;;;;;5024622;28;20201;-75
2022/12/07 08:20:36;;;;;;;4.43;1.20;;;;;;;;;;5004838;28;20467;-75
2022/12/07 08:23:02;;;;;;;5.60;1.40;;;;;;;;;;5021835;28;20173;-75
2022/12/07 08:25:28;;;;;;;6.30;1.67;;;;;;;;;;5019797;28;20595;-74
2022/12/07 08:27:53;;;;;;;4.53;1.67;;;;;;;;;;5029992;28;20444;-75
2022/12/07 08:30:19;;;;;;;3.53;1.50;;;;;;;;;;5027615;28;20464;-74
2022/12/07 08:32:45;;;;;;;3.57;1.40;;;;;;;;;;5025879;28;20228;-75
2022/12/07 08:35:10;;;;;;;4.57;1.97;;;;;;;;;;5026885;28;20513;-75
2022/12/07 08:37:36;;;;;;;8.57;3.73;;;;;;;;;;5023113;28;20239;-75
2022/12/07 08:40:02;;;;;;;13.93;4.97;;;;;;;;;;5011253;28;20273;-73
2022/12/07 08:42:29;;;;;;;8.77;3.13;;;;;;;;;;5023171;28;20728;-74
2022/12/07 08:44:55;;;;;;;4.23;2.00;;;;;;;;;;5030121;28;20494;-73
2022/12/07 08:47:20;;;;;;;5.10;1.60;;;;;;;;;;5030890;28;20569;-73
2022/12/07 08:49:47;;;;;;;4.47;1.40;;;;;;;;;;5028444;28;20653;-73
2022/12/07 08:52:12;;;;;;;3.57;2.30;;;;;;;;;;5024296;28;20188;-73
2022/12/07 08:54:38;;;;;;;4.17;1.30;;;;;;;;;;5027255;28;20434;-73
2022/12/07 08:57:04;;;;;;;5.73;1.13;;;;;;;;;;5026074;28;20200;-73
2022/12/07 08:59:30;;;;;;;9.33;1.53;;;;;;;;;;5024247;28;20776;-73
2022/12/07 09:01:55;;;;;;;4.03;1.30;;;;;;;;;;5028423;28;20187;-73
2022/12/07 09:04:21;;;;;;;5.67;1.30;;;;;;;;;;5025951;28;20184;-73
2022/12/07 09:06:48;;;;;;;3.67;1.03;;;;;;;;;;5027454;28;20192;-73
2022/12/07 09:09:13;;;;;;;3.40;1.10;;;;;;;;;;5023840;28;20191;-73
2022/12/07 09:11:39;;;;;;;3.50;1.10;;;;;;;;;;5026671;28;20919;-73
2022/12/07 09:14:04;;;;;;;1.60;0.80;;;;;;;;;;5024572;28;20177;-73
2022/12/07 09:16:30;;;;;;;2.03;0.70;;;;;;;;;;5023790;28;20169;-73
2022/12/07 09:18:55;;;;;;;1.83;0.70;;;;;;;;;;5021066;28;20169;-73
2022/12/07 09:21:20;;;;;;;3.40;0.83;;;;;;;;;;5023745;28;20287;-73
2022/12/07 09:23:46;;;;;;;3.17;0.70;;;;;;;;;;5019617;28;20651;-73
2022/12/07 09:26:11;;;;;;;5.30;1.00;;;;;;;;;;5001406;28;20176;-73
2022/12/07 09:28:36;;;;;;;1.70;0.60;;;;;;;;;;5017699;28;20196;-73
2022/12/07 09:31:02;;;;;;;3.43;0.80;;;;;;;;;;5007426;28;20184;-73
2022/12/07 09:33:28;;;;;;;1.97;1.00;;;;;;;;;;5021548;28;20207;-73
2022/12/07 09:35:53;;;;;;;5.50;0.90;;;;;;;;;;5027902;28;20909;-73
2022/12/07 09:38:19;;;;;;;8.60;1.30;;;;;;;;;;5025906;28;20212;-73
2022/12/07 09:40:45;;;;;;;4.10;1.57;;;;;;;;;;5020745;28;20645;-73
2022/12/07 09:43:21;;;;;;;4.50;1.27;;;;;;;;;;5011182;28;20844;-73
2022/12/07 09:45:56;;;;;;;3.73;1.10;;;;;;;;;;5014677;28;20187;-73
2022/12/07 09:48:24;;;;;;;4.30;1.10;;;;;;;;;;5014162;28;20521;-73
2022/12/07 09:50:49;;;;;;;2.60;1.00;;;;;;;;;;5022577;28;20431;-73
2022/12/07 09:53:22;;;;;;;3.90;1.10;;;;;;;;;;5004965;28;20431;-73
2022/12/07 09:55:47;;;;;;;4.00;1.00;;;;;;;;;;5027418;28;20665;-73
2022/12/07 09:58:19;;;;;;;6.60;1.30;;;;;;;;;;5013507;28;20451;-73
2022/12/07 10:00:45;;;;;;;6.33;1.73;;;;;;;;;;5020833;28;20748;-73
2022/12/07 10:03:11;;;;;;;6.73;1.37;;;;;;;;;;5022661;28;20522;-73
2022/12/07 10:05:42;;;;;;;3.27;0.90;;;;;;;;;;5026203;28;20419;-73
2022/12/07 10:08:10;;;;;;;2.63;0.60;;;;;;;;;;5022189;28;20446;-73
2022/12/07 10:10:39;;;;;;;5.57;0.97;;;;;;;;;;5023414;28;20411;-73
2022/12/07 10:13:05;;;;;;;3.63;0.90;;;;;;;;;;5018114;28;20808;-73
2022/12/07 10:15:44;;;;;;;4.27;0.83;;;;;;;;;;5024745;28;20411;-73
2022/12/07 10:18:28;;;;;;;3.03;1.27;;;;;;;;;;5020211;28;20208;-73
2022/12/07 10:21:07;;;;;;;2.97;0.80;;;;;;;;;;5025521;28;20476;-73
2022/12/07 10:23:32;;;;;;;1.10;0.70;;;;;;;;;;5021496;28;20918;-73
2022/12/07 10:25:58;;;;;;;5.20;0.80;;;;;;;;;;5026722;28;20418;-73
2022/12/07 10:28:23;;;;;;;9.43;1.27;;;;;;;;;;5022869;28;20283;-73
2022/12/07 10:30:51;;;;;;;1.73;0.83;;;;;;;;;;5015553;28;20200;-73
2022/12/07 10:33:30;;;;;;;5.40;1.80;;;;;;;;;;5019785;28;20270;-73
2022/12/07 10:35:55;;;;;;;10.07;1.17;;;;;;;;;;5025043;28;20478;-73
2022/12/07 10:38:20;;;;;;;2.37;0.90;;;;;;;;;;5005555;28;20471;-72
2022/12/07 10:40:46;;;;;;;2.43;1.10;;;;;;;;;;5021915;28;20262;-73
2022/12/07 10:43:11;;;;;;;2.20;0.80;;;;;;;;;;5009997;28;20172;-73
2022/12/07 10:45:43;;;;;;;3.23;1.10;;;;;;;;;;5024002;28;20192;-73
2022/12/07 10:48:19;;;;;;;5.07;1.10;;;;;;;;;;5008606;28;20208;-72
2022/12/07 10:50:47;;;;;;;2.47;0.80;;;;;;;;;;5025514;28;20426;-73
2022/12/07 10:53:24;;;;;;;3.47;1.00;;;;;;;;;;5023789;28;20447;-73
2022/12/07 10:55:55;;;;;;;5.17;1.63;;;;;;;;;;5018978;28;20442;-72
2022/12/07 10:58:32;;;;;;;3.57;1.27;;;;;;;;;;5005614;28;20761;-73
2022/12/07 11:01:16;;;;;;;5.10;1.30;;;;;;;;;;5015159;28;20467;-73
2022/12/07 11:03:41;;;;;;;7.80;1.40;;;;;;;;;;4991963;28;21809;-73
2022/12/07 11:06:13;;;;;;;10.63;1.40;;;;;;;;;;5006107;28;20439;-73
2022/12/07 11:09:07;;;;;;;3.90;1.10;;;;;;;;;;5015233;28;20212;-73
2022/12/07 11:11:38;;;;;;;5.17;1.40;;;;;;;;;;4977228;28;20442;-73
2022/12/07 11:14:23;;;;;;;5.43;1.37;;;;;;;;;;5015811;28;20430;-72
2022/12/07 11:16:51;;;;;;;3.53;0.90;;;;;;;;;;5016110;28;20458;-73
2022/12/07 11:19:19;;;;;;;7.87;1.17;;;;;;;;;;5009612;28;20431;-73
2022/12/07 11:22:10;;;;;;;3.00;1.20;;;;;;;;;;5011550;28;20438;-73
2022/12/07 11:24:54;;;;;;;2.40;1.00;;;;;;;;;;5000603;28;20435;-73
2022/12/07 11:27:20;;;;;;;3.27;0.97;;;;;;;;;;5001172;28;20907;-73
2022/12/07 11:29:51;;;;;;;7.23;0.93;;;;;;;;;;5011183;28;20435;-73
2022/12/07 11:32:22;;;;;;;5.10;1.20;;;;;;;;;;5019356;28;20180;-73
2022/12/07 11:34:47;;;;;;;4.73;1.00;;;;;;;;;;5026419;28;20454;-73
2022/12/07 11:37:27;;;;;;;5.13;1.20;;;;;;;;;;5027992;28;20482;-73
2022/12/07 11:39:55;;;;;;;4.20;1.20;;;;;;;;;;5012789;23;20232;-86
2022/12/07 11:42:46;;;;;;;5.87;1.30;;;;;;;;;;4999411;28;20705;-84
2022/12/07 11:45:16;;;;;;;6.90;1.30;;;;;;;;;;5020229;28;20466;-88
2022/12/07 11:47:50;;;;;;;5.17;1.80;;;;;;;;;;5020353;28;20450;-87
2022/12/07 11:50:25;;;;;;;6.30;1.30;;;;;;;;;;5009434;28;20446;-86
2022/12/07 11:52:50;;;;;;;4.03;1.47;;;;;;;;;;5020156;28;20857;-88
2022/12/07 11:55:20;;;;;;;3.53;1.30;;;;;;;;;;5006076;28;20447;-88
2022/12/07 11:57:49;;;;;;;5.57;1.37;;;;;;;;;;5020973;28;20180;-88
2022/12/07 12:00:15;;;;;;;3.73;1.30;;;;;;;;;;5002392;28;26761;-86
2022/12/07 12:03:04;;;;;;;15.23;1.70;;;;;;;;;;5022437;28;20489;-87
2022/12/07 12:05:30;;;;;;;4.70;1.13;;;;;;;;;;4993807;28;20432;-87
2022/12/07 12:08:01;;;;;;;3.60;1.90;;;;;;;;;;5019774;28;20932;-87
2022/12/07 12:10:29;;;;;;;3.63;1.30;;;;;;;;;;5019985;28;20204;-87
2022/12/07 12:12:57;;;;;;;2.57;1.10;;;;;;;;;;5020479;28;20493;-87
2022/12/07 12:15:29;;;;;;;1.47;1.17;;;;;;;;;;4995164;28;20432;-85
2022/12/07 12:17:58;;;;;;;2.17;1.27;;;;;;;;;;5022156;28;20443;-84
2022/12/07 12:20:29;;;;;;;4.33;1.30;;;;;;;;;;5018478;28;21063;-85
2022/12/07 12:22:54;;;;;;;3.60;1.10;;;;;;;;;;5019971;28;20427;-87
2022/12/07 12:25:30;;;;;;;2.60;1.10;;;;;;;;;;5022657;28;20465;-87
2022/12/07 12:27:57;;;;;;;5.37;1.40;;;;;;;;;;5018590;28;20219;-87
2022/12/07 12:30:29;;;;;;;2.70;1.00;;;;;;;;;;5001466;28;20491;-87
2022/12/07 12:33:00;;;;;;;7.20;1.20;;;;;;;;;;5018797;28;20426;-87
2022/12/07 12:35:36;;;;;;;4.57;1.00;;;;;;;;;;5020018;28;20870;-88
2022/12/07 12:38:20;;;;;;;12.90;1.90;;;;;;;;;;5002617;28;20427;-87
2022/12/07 12:40:46;;;;;;;3.10;1.33;;;;;;;;;;5016471;28;20581;-88
2022/12/07 12:43:50;;;;;;;8.00;1.20;;;;;;;;;;5020853;28;20457;-88
2022/12/07 12:46:34;;;;;;;5.97;1.30;;;;;;;;;;4928127;29;20187;-87
2022/12/07 12:49:17;;;;;;;8.57;1.30;;;;;;;;;;4929510;29;20448;-86
2022/12/07 12:51:44;;;;;;;3.30;1.00;;;;;;;;;;4990657;28;20438;-85
2022/12/07 12:54:20;;;;;;;3.27;1.03;;;;;;;;;;5001117;28;20419;-88
2022/12/07 12:56:48;;;;;;;2.93;1.20;;;;;;;;;;5018345;28;20472;-87
2022/12/07 12:59:22;;;;;;;5.30;0.90;;;;;;;;;;5016816;28;20440;-86
2022/12/07 13:01:48;;;;;;;5.93;1.20;;;;;;;;;;4998127;28;20444;-86
2022/12/07 13:04:24;;;;;;;5.07;1.20;;;;;;;;;;4995479;28;20432;-87
2022/12/07 13:06:50;;;;;;;3.53;1.20;;;;;;;;;;5019672;28;20414;-87
2022/12/07 13:09:26;;;;;;;7.20;1.70;;;;;;;;;;4999196;28;20447;-88
2022/12/07 13:11:57;;;;;;;2.43;1.00;;;;;;;;;;5018413;28;20176;-88
2022/12/07 13:14:41;;;;;;;5.03;1.17;;;;;;;;;;5010172;28;20436;-88
2022/12/07 13:17:10;;;;;;;10.03;1.40;;;;;;;;;;5017724;28;20414;-88
2022/12/07 13:19:42;;;;;;;5.60;1.13;;;;;;;;;;5003518;28;20541;-87
2022/12/07 13:22:28;;;;;;;3.47;1.30;;;;;;;;;;5021006;28;20422;-87
2022/12/07 13:25:16;;;;;;;4.83;1.17;;;;;;;;;;5001722;28;20423;-88
2022/12/07 13:27:43;;;;;;;4.50;1.20;;;;;;;;;;5014141;28;20447;-87
2022/12/07 13:30:14;;;;;;;3.67;1.10;;;;;;;;;;5017002;28;20866;-87
2022/12/07 13:32:39;;;;;;;8.70;1.40;;;;;;;;;;5003976;28;21116;-87
2022/12/07 13:35:24;;;;;;;6.33;1.43;;;;;;;;;;5008520;28;20471;-88
2022/12/07 13:37:50;;;;;;;4.40;1.23;;;;;;;;;;5017345;28;20176;-87
2022/12/07 13:40:19;;;;;;;5.90;1.20;;;;;;;;;;5014509;28;20480;-87
2022/12/07 13:42:45;;;;;;;8.07;1.40;;;;;;;;;;5014379;28;20235;-88
2022/12/07 13:48:24;;;;;;;2.60;0.70;;;;;;;;;;5016613;28;20275;-88
2022/12/07 13:50:54;;;;;;;2.53;1.07;;;;;;;;;;5012810;28;20652;-80
2022/12/07 13:53:19;;;;;;;4.80;1.50;;;;;;;;;;5011308;28;20446;-81
2022/12/07 13:55:45;;;;;;;2.40;0.87;;;;;;;;;;5020357;28;20522;-80
2022/12/07 13:58:11;;;;;;;4.23;1.17;;;;;;;;;;5012863;28;20218;-84
2022/12/07 14:00:36;;;;;;;3.23;1.07;;;;;;;;;;5019079;28;20758;-82
2022/12/07 14:03:03;;;;;;;2.37;1.07;;;;;;;;;;5016109;28;20181;-81
2022/12/07 14:05:29;;;;;;;2.80;1.20;;;;;;;;;;5018168;28;20192;-88
2022/12/07 14:07:57;;;;;;;4.03;1.10;;;;;;;;;;4994872;28;20476;-87
2022/12/07 14:10:26;;;;;;;8.43;1.47;;;;;;;;;;5003927;28;20494;-88
2022/12/07 14:12:51;;;;;;;3.77;1.20;;;;;;;;;;5004257;28;20427;-87
2022/12/07 14:15:21;;;;;;;2.83;0.87;;;;;;;;;;5014895;28;20450;-85
2022/12/07 14:17:54;;;;;;;8.63;1.83;;;;;;;;;;5013285;28;20188;-87
2022/12/07 14:20:29;;;;;;;9.03;1.80;;;;;;;;;;5004290;28;20474;-87
2022/12/07 14:22:55;;;;;;;3.87;1.10;;;;;;;;;;4995609;28;20435;-86
2022/12/07 14:25:22;;;;;;;2.70;0.90;;;;;;;;;;5002735;28;20419;-86
2022/12/07 14:28:10;;;;;;;4.10;1.00;;;;;;;;;;5017063;28;20640;-88
2022/12/07 14:30:35;;;;;;;3.80;1.20;;;;;;;;;;4997457;28;20889;-86
2022/12/07 14:33:02;;;;;;;3.60;1.27;;;;;;;;;;5016463;28;20510;-87
2022/12/07 14:35:28;;;;;;;4.20;1.20;;;;;;;;;;5017008;28;20264;-86
2022/12/07 14:37:53;;;;;;;6.10;1.53;;;;;;;;;;5016004;28;20511;-87
2022/12/07 14:40:29;;;;;;;3.50;1.33;;;;;;;;;;5013856;28;20979;-87
2022/12/07 14:42:57;;;;;;;6.40;1.93;;;;;;;;;;5002107;28;20647;-87
2022/12/07 14:45:22;;;;;;;4.13;1.27;;;;;;;;;;5000598;28;20815;-87
2022/12/07 14:47:48;;;;;;;4.20;1.03;;;;;;;;;;5015990;28;20428;-90
2022/12/07 14:50:14;;;;;;;3.53;1.10;;;;;;;;;;5023602;28;20680;-89
2022/12/07 14:52:40;;;;;;;5.27;1.80;;;;;;;;;;5000598;28;20280;-88
2022/12/07 14:55:13;;;;;;;9.73;2.87;;;;;;;;;;5016657;28;20506;-87
2022/12/07 14:57:38;;;;;;;5.53;2.50;;;;;;;;;;4988680;28;20581;-89